Armour, South Dakota
Current Conditions -  °F | °C
As of 8:06 AM on Wednesday 26 Nov 2014 (Local Time) from KMHE Reporting Station
Light Snow Light Snow  
Wind Chill: -2°   Ceiling: 3100
Heat Index: 17°   Visibility: 1.2mi
Dew Point: 13°   Wind: 28mph
Humidity: 84%   Direction: 340°NNW
Pressure: 30.2"   Gusts: 38mph
Location:  43.32°N, 98.35°W
Report Text: KMHE 261406Z AUTO 34024G33KT 1 1/4SM -SN BR FEW014 BKN031 OVC055 M08/M11 A3020 RMK AO2 PK WND 34033/1405 P0000 T10831106
Loading
Personal Weather Stations






























Interactive Weather Map New forecast layout! Learn more

10-Day Weather Forecast

Advertisements
Track Severe Weather on mobile